sensor_id;sensor_type;location;lat;lon;timestamp;P1;durP1;ratioP1;P2;durP2;ratioP2
16450;SDS011;12243;42.708;23.310;2023-04-15T00:01:00;11.40;;;6.50;;
16450;SDS011;12243;42.708;23.310;2023-04-15T00:03:28;7.30;;;5.53;;
16450;SDS011;12243;42.708;23.310;2023-04-15T00:05:54;9.00;;;6.10;;
16450;SDS011;12243;42.708;23.310;2023-04-15T00:08:21;7.50;;;5.97;;
16450;SDS011;12243;42.708;23.310;2023-04-15T00:10:48;8.77;;;5.70;;
16450;SDS011;12243;42.708;23.310;2023-04-15T00:13:16;9.90;;;5.80;;
16450;SDS011;12243;42.708;23.310;2023-04-15T00:15:43;11.53;;;5.97;;
16450;SDS011;12243;42.708;23.310;2023-04-15T00:18:10;9.90;;;6.30;;
16450;SDS011;12243;42.708;23.310;2023-04-15T00:20:37;9.83;;;6.27;;
16450;SDS011;12243;42.708;23.310;2023-04-15T00:23:04;13.10;;;6.57;;
16450;SDS011;12243;42.708;23.310;2023-04-15T00:25:32;10.63;;;6.37;;
16450;SDS011;12243;42.708;23.310;2023-04-15T00:27:59;7.23;;;6.20;;
16450;SDS011;12243;42.708;23.310;2023-04-15T00:30:27;7.33;;;5.87;;
16450;SDS011;12243;42.708;23.310;2023-04-15T00:32:54;8.63;;;6.00;;
16450;SDS011;12243;42.708;23.310;2023-04-15T00:35:21;11.90;;;6.60;;
16450;SDS011;12243;42.708;23.310;2023-04-15T00:37:49;8.03;;;6.53;;
16450;SDS011;12243;42.708;23.310;2023-04-15T00:40:16;9.97;;;7.73;;
16450;SDS011;12243;42.708;23.310;2023-04-15T00:42:44;10.13;;;7.37;;
16450;SDS011;12243;42.708;23.310;2023-04-15T00:45:14;10.40;;;7.90;;
16450;SDS011;12243;42.708;23.310;2023-04-15T00:47:43;10.20;;;7.63;;
16450;SDS011;12243;42.708;23.310;2023-04-15T00:50:11;10.27;;;7.33;;
16450;SDS011;12243;42.708;23.310;2023-04-15T00:52:39;11.03;;;7.97;;
16450;SDS011;12243;42.708;23.310;2023-04-15T00:55:07;8.60;;;7.23;;
16450;SDS011;12243;42.708;23.310;2023-04-15T00:57:35;14.87;;;8.67;;
16450;SDS011;12243;42.708;23.310;2023-04-15T01:00:03;14.13;;;8.53;;
16450;SDS011;12243;42.708;23.310;2023-04-15T01:02:32;12.93;;;8.20;;
16450;SDS011;12243;42.708;23.310;2023-04-15T01:05:02;9.77;;;7.73;;
16450;SDS011;12243;42.708;23.310;2023-04-15T01:07:29;10.43;;;8.07;;
16450;SDS011;12243;42.708;23.310;2023-04-15T01:09:57;11.87;;;7.83;;
16450;SDS011;12243;42.708;23.310;2023-04-15T01:12:25;17.20;;;8.63;;
16450;SDS011;12243;42.708;23.310;2023-04-15T01:14:53;12.77;;;7.87;;
16450;SDS011;12243;42.708;23.310;2023-04-15T01:17:20;13.07;;;10.23;;
16450;SDS011;12243;42.708;23.310;2023-04-15T01:19:47;16.37;;;12.03;;
16450;SDS011;12243;42.708;23.310;2023-04-15T01:22:16;15.00;;;10.87;;
16450;SDS011;12243;42.708;23.310;2023-04-15T01:24:43;12.00;;;9.20;;
16450;SDS011;12243;42.708;23.310;2023-04-15T01:27:19;14.93;;;9.90;;
16450;SDS011;12243;42.708;23.310;2023-04-15T01:29:46;12.60;;;9.07;;
16450;SDS011;12243;42.708;23.310;2023-04-15T01:32:13;13.23;;;8.77;;
16450;SDS011;12243;42.708;23.310;2023-04-15T01:34:40;11.40;;;8.60;;
16450;SDS011;12243;42.708;23.310;2023-04-15T01:37:06;12.57;;;7.53;;
16450;SDS011;12243;42.708;23.310;2023-04-15T01:39:33;9.20;;;7.07;;
16450;SDS011;12243;42.708;23.310;2023-04-15T01:42:00;13.17;;;7.40;;
16450;SDS011;12243;42.708;23.310;2023-04-15T01:44:28;13.63;;;8.80;;
16450;SDS011;12243;42.708;23.310;2023-04-15T01:46:55;12.00;;;8.03;;
16450;SDS011;12243;42.708;23.310;2023-04-15T01:49:22;11.40;;;9.43;;
16450;SDS011;12243;42.708;23.310;2023-04-15T01:51:49;10.77;;;9.10;;
16450;SDS011;12243;42.708;23.310;2023-04-15T01:54:16;15.60;;;8.13;;
16450;SDS011;12243;42.708;23.310;2023-04-15T01:56:43;11.67;;;8.40;;
16450;SDS011;12243;42.708;23.310;2023-04-15T01:59:10;11.20;;;8.30;;
16450;SDS011;12243;42.708;23.310;2023-04-15T02:01:38;9.30;;;7.90;;
16450;SDS011;12243;42.708;23.310;2023-04-15T02:04:05;11.13;;;8.27;;
16450;SDS011;12243;42.708;23.310;2023-04-15T02:06:33;13.57;;;8.10;;
16450;SDS011;12243;42.708;23.310;2023-04-15T02:09:00;9.77;;;7.60;;
16450;SDS011;12243;42.708;23.310;2023-04-15T02:11:28;10.47;;;7.60;;
16450;SDS011;12243;42.708;23.310;2023-04-15T02:13:55;10.10;;;7.17;;
16450;SDS011;12243;42.708;23.310;2023-04-15T02:16:24;9.40;;;7.50;;
16450;SDS011;12243;42.708;23.310;2023-04-15T02:18:52;10.93;;;7.40;;
16450;SDS011;12243;42.708;23.310;2023-04-15T02:21:19;10.03;;;7.50;;
16450;SDS011;12243;42.708;23.310;2023-04-15T02:23:46;8.93;;;7.50;;
16450;SDS011;12243;42.708;23.310;2023-04-15T02:26:13;10.43;;;7.17;;
16450;SDS011;12243;42.708;23.310;2023-04-15T02:28:40;11.43;;;8.10;;
16450;SDS011;12243;42.708;23.310;2023-04-15T02:31:07;10.70;;;7.73;;
16450;SDS011;12243;42.708;23.310;2023-04-15T02:33:34;9.67;;;7.43;;
16450;SDS011;12243;42.708;23.310;2023-04-15T02:36:03;8.47;;;7.20;;
16450;SDS011;12243;42.708;23.310;2023-04-15T02:38:31;9.83;;;7.27;;
16450;SDS011;12243;42.708;23.310;2023-04-15T02:40:58;10.53;;;7.77;;
16450;SDS011;12243;42.708;23.310;2023-04-15T02:43:26;9.43;;;7.53;;
16450;SDS011;12243;42.708;23.310;2023-04-15T02:45:53;11.20;;;6.90;;
16450;SDS011;12243;42.708;23.310;2023-04-15T02:48:20;9.90;;;6.90;;
16450;SDS011;12243;42.708;23.310;2023-04-15T02:50:47;9.80;;;6.87;;
16450;SDS011;12243;42.708;23.310;2023-04-15T02:53:16;9.70;;;7.37;;
16450;SDS011;12243;42.708;23.310;2023-04-15T02:55:44;8.60;;;7.70;;
16450;SDS011;12243;42.708;23.310;2023-04-15T02:58:11;8.13;;;6.73;;
16450;SDS011;12243;42.708;23.310;2023-04-15T03:00:38;7.93;;;6.83;;
16450;SDS011;12243;42.708;23.310;2023-04-15T03:03:05;11.17;;;7.00;;
16450;SDS011;12243;42.708;23.310;2023-04-15T03:05:33;10.33;;;7.47;;
16450;SDS011;12243;42.708;23.310;2023-04-15T03:08:02;7.13;;;6.33;;
16450;SDS011;12243;42.708;23.310;2023-04-15T03:10:31;7.90;;;6.10;;
16450;SDS011;12243;42.708;23.310;2023-04-15T03:13:00;7.63;;;6.20;;
16450;SDS011;12243;42.708;23.310;2023-04-15T03:15:27;7.80;;;5.73;;
16450;SDS011;12243;42.708;23.310;2023-04-15T03:17:53;6.37;;;5.43;;
16450;SDS011;12243;42.708;23.310;2023-04-15T03:20:20;7.63;;;5.53;;
16450;SDS011;12243;42.708;23.310;2023-04-15T03:22:47;6.07;;;5.33;;
16450;SDS011;12243;42.708;23.310;2023-04-15T03:25:14;6.93;;;5.23;;
16450;SDS011;12243;42.708;23.310;2023-04-15T03:27:43;8.37;;;5.87;;
16450;SDS011;12243;42.708;23.310;2023-04-15T03:30:11;6.67;;;5.60;;
16450;SDS011;12243;42.708;23.310;2023-04-15T03:32:39;10.20;;;6.03;;
16450;SDS011;12243;42.708;23.310;2023-04-15T03:35:07;6.73;;;5.60;;
16450;SDS011;12243;42.708;23.310;2023-04-15T03:37:34;9.83;;;6.07;;
16450;SDS011;12243;42.708;23.310;2023-04-15T03:40:01;6.90;;;5.73;;
16450;SDS011;12243;42.708;23.310;2023-04-15T03:42:28;7.27;;;5.70;;
16450;SDS011;12243;42.708;23.310;2023-04-15T03:44:57;6.93;;;6.23;;
16450;SDS011;12243;42.708;23.310;2023-04-15T03:47:23;7.87;;;6.23;;
16450;SDS011;12243;42.708;23.310;2023-04-15T03:49:50;7.23;;;6.13;;
16450;SDS011;12243;42.708;23.310;2023-04-15T03:52:17;7.23;;;6.50;;
16450;SDS011;12243;42.708;23.310;2023-04-15T03:54:44;7.23;;;6.40;;
16450;SDS011;12243;42.708;23.310;2023-04-15T03:57:12;9.53;;;6.70;;
16450;SDS011;12243;42.708;23.310;2023-04-15T03:59:38;8.87;;;7.00;;
16450;SDS011;12243;42.708;23.310;2023-04-15T04:02:07;9.80;;;7.07;;
16450;SDS011;12243;42.708;23.310;2023-04-15T04:04:33;7.33;;;6.50;;
16450;SDS011;12243;42.708;23.310;2023-04-15T04:07:00;10.13;;;6.43;;
16450;SDS011;12243;42.708;23.310;2023-04-15T04:09:27;7.70;;;6.90;;
16450;SDS011;12243;42.708;23.310;2023-04-15T04:11:54;8.17;;;6.90;;
16450;SDS011;12243;42.708;23.310;2023-04-15T04:14:22;8.97;;;6.90;;
16450;SDS011;12243;42.708;23.310;2023-04-15T04:16:53;9.60;;;7.07;;
16450;SDS011;12243;42.708;23.310;2023-04-15T04:19:22;12.03;;;8.30;;
16450;SDS011;12243;42.708;23.310;2023-04-15T04:21:49;11.43;;;8.10;;
16450;SDS011;12243;42.708;23.310;2023-04-15T04:24:16;13.03;;;7.60;;
16450;SDS011;12243;42.708;23.310;2023-04-15T04:26:43;10.37;;;8.47;;
16450;SDS011;12243;42.708;23.310;2023-04-15T04:29:10;14.37;;;9.20;;
16450;SDS011;12243;42.708;23.310;2023-04-15T04:31:37;14.13;;;8.50;;
16450;SDS011;12243;42.708;23.310;2023-04-15T04:34:04;10.03;;;6.70;;
16450;SDS011;12243;42.708;23.310;2023-04-15T04:36:33;9.27;;;7.10;;
16450;SDS011;12243;42.708;23.310;2023-04-15T04:39:00;9.97;;;7.07;;
16450;SDS011;12243;42.708;23.310;2023-04-15T04:41:27;9.13;;;6.17;;
16450;SDS011;12243;42.708;23.310;2023-04-15T04:43:54;8.63;;;6.80;;
16450;SDS011;12243;42.708;23.310;2023-04-15T04:46:21;7.90;;;6.53;;
16450;SDS011;12243;42.708;23.310;2023-04-15T04:48:48;8.27;;;6.23;;
16450;SDS011;12243;42.708;23.310;2023-04-15T04:51:15;8.40;;;6.70;;
16450;SDS011;12243;42.708;23.310;2023-04-15T04:53:43;9.57;;;6.30;;
16450;SDS011;12243;42.708;23.310;2023-04-15T04:56:10;6.67;;;5.97;;
16450;SDS011;12243;42.708;23.310;2023-04-15T04:58:37;6.83;;;5.67;;
16450;SDS011;12243;42.708;23.310;2023-04-15T05:01:04;8.63;;;6.07;;
16450;SDS011;12243;42.708;23.310;2023-04-15T05:03:31;14.13;;;7.50;;
16450;SDS011;12243;42.708;23.310;2023-04-15T05:05:58;10.30;;;6.70;;
16450;SDS011;12243;42.708;23.310;2023-04-15T05:08:25;11.00;;;7.20;;
16450;SDS011;12243;42.708;23.310;2023-04-15T05:10:53;10.33;;;7.13;;
16450;SDS011;12243;42.708;23.310;2023-04-15T05:13:20;9.53;;;6.97;;
16450;SDS011;12243;42.708;23.310;2023-04-15T05:15:47;9.53;;;6.53;;
16450;SDS011;12243;42.708;23.310;2023-04-15T05:18:14;10.50;;;7.10;;
16450;SDS011;12243;42.708;23.310;2023-04-15T05:20:41;10.60;;;7.33;;
16450;SDS011;12243;42.708;23.310;2023-04-15T05:23:08;9.07;;;6.47;;
16450;SDS011;12243;42.708;23.310;2023-04-15T05:25:35;10.10;;;6.67;;
16450;SDS011;12243;42.708;23.310;2023-04-15T05:28:03;9.07;;;6.17;;
16450;SDS011;12243;42.708;23.310;2023-04-15T05:30:30;9.10;;;6.90;;
16450;SDS011;12243;42.708;23.310;2023-04-15T05:32:57;6.83;;;6.00;;
16450;SDS011;12243;42.708;23.310;2023-04-15T05:35:24;8.13;;;6.67;;
16450;SDS011;12243;42.708;23.310;2023-04-15T05:37:51;8.90;;;6.70;;
16450;SDS011;12243;42.708;23.310;2023-04-15T05:40:18;11.17;;;6.90;;
16450;SDS011;12243;42.708;23.310;2023-04-15T05:42:45;6.88;;;6.26;;
16450;SDS011;12243;42.708;23.310;2023-04-15T05:45:13;12.33;;;6.97;;
16450;SDS011;12243;42.708;23.310;2023-04-15T05:47:40;12.17;;;6.80;;
16450;SDS011;12243;42.708;23.310;2023-04-15T05:50:07;7.27;;;6.23;;
16450;SDS011;12243;42.708;23.310;2023-04-15T05:52:35;8.87;;;6.27;;
16450;SDS011;12243;42.708;23.310;2023-04-15T05:55:02;9.10;;;6.63;;
16450;SDS011;12243;42.708;23.310;2023-04-15T05:57:28;8.57;;;6.77;;
16450;SDS011;12243;42.708;23.310;2023-04-15T05:59:55;8.83;;;6.27;;
16450;SDS011;12243;42.708;23.310;2023-04-15T06:02:24;9.00;;;6.50;;
16450;SDS011;12243;42.708;23.310;2023-04-15T06:04:52;11.10;;;6.30;;
16450;SDS011;12243;42.708;23.310;2023-04-15T06:07:18;7.50;;;6.70;;
16450;SDS011;12243;42.708;23.310;2023-04-15T06:09:45;10.53;;;7.03;;
16450;SDS011;12243;42.708;23.310;2023-04-15T06:12:12;8.53;;;6.70;;
16450;SDS011;12243;42.708;23.310;2023-04-15T06:14:40;10.03;;;7.40;;
16450;SDS011;12243;42.708;23.310;2023-04-15T06:17:07;9.20;;;7.50;;
16450;SDS011;12243;42.708;23.310;2023-04-15T06:19:35;12.03;;;8.17;;
16450;SDS011;12243;42.708;23.310;2023-04-15T06:22:02;8.30;;;7.50;;
16450;SDS011;12243;42.708;23.310;2023-04-15T06:24:31;10.77;;;6.77;;
16450;SDS011;12243;42.708;23.310;2023-04-15T06:26:58;9.07;;;8.13;;
16450;SDS011;12243;42.708;23.310;2023-04-15T06:29:27;9.93;;;6.57;;
16450;SDS011;12243;42.708;23.310;2023-04-15T06:31:54;10.10;;;6.30;;
16450;SDS011;12243;42.708;23.310;2023-04-15T06:34:22;7.60;;;6.40;;
16450;SDS011;12243;42.708;23.310;2023-04-15T06:36:51;8.07;;;6.30;;
16450;SDS011;12243;42.708;23.310;2023-04-15T06:39:18;8.33;;;6.70;;
16450;SDS011;12243;42.708;23.310;2023-04-15T06:41:45;9.57;;;6.20;;
16450;SDS011;12243;42.708;23.310;2023-04-15T06:44:12;8.17;;;5.97;;
16450;SDS011;12243;42.708;23.310;2023-04-15T06:46:40;9.23;;;5.50;;
16450;SDS011;12243;42.708;23.310;2023-04-15T06:49:06;8.83;;;6.87;;
16450;SDS011;12243;42.708;23.310;2023-04-15T06:51:33;7.90;;;6.30;;
16450;SDS011;12243;42.708;23.310;2023-04-15T06:54:02;9.03;;;5.93;;
16450;SDS011;12243;42.708;23.310;2023-04-15T06:56:30;8.43;;;6.20;;
16450;SDS011;12243;42.708;23.310;2023-04-15T06:58:57;9.57;;;5.60;;
16450;SDS011;12243;42.708;23.310;2023-04-15T07:01:24;13.10;;;7.60;;
16450;SDS011;12243;42.708;23.310;2023-04-15T07:03:51;10.83;;;5.90;;
16450;SDS011;12243;42.708;23.310;2023-04-15T07:06:26;7.67;;;6.03;;
16450;SDS011;12243;42.708;23.310;2023-04-15T07:08:53;6.87;;;5.57;;
16450;SDS011;12243;42.708;23.310;2023-04-15T07:11:23;11.37;;;5.43;;
16450;SDS011;12243;42.708;23.310;2023-04-15T07:13:51;5.73;;;3.90;;
16450;SDS011;12243;42.708;23.310;2023-04-15T07:16:18;5.87;;;5.30;;
16450;SDS011;12243;42.708;23.310;2023-04-15T07:18:45;14.03;;;7.80;;
16450;SDS011;12243;42.708;23.310;2023-04-15T07:21:12;10.10;;;6.10;;
16450;SDS011;12243;42.708;23.310;2023-04-15T07:23:39;9.80;;;5.67;;
16450;SDS011;12243;42.708;23.310;2023-04-15T07:26:05;7.63;;;5.23;;
16450;SDS011;12243;42.708;23.310;2023-04-15T07:28:35;7.87;;;5.17;;
16450;SDS011;12243;42.708;23.310;2023-04-15T07:31:02;8.97;;;6.40;;
16450;SDS011;12243;42.708;23.310;2023-04-15T07:33:29;8.33;;;5.53;;
16450;SDS011;12243;42.708;23.310;2023-04-15T07:35:56;7.27;;;4.90;;
16450;SDS011;12243;42.708;23.310;2023-04-15T07:38:23;6.83;;;5.30;;
16450;SDS011;12243;42.708;23.310;2023-04-15T07:40:52;5.53;;;4.67;;
16450;SDS011;12243;42.708;23.310;2023-04-15T07:43:21;4.30;;;3.90;;
16450;SDS011;12243;42.708;23.310;2023-04-15T07:45:49;5.27;;;4.63;;
16450;SDS011;12243;42.708;23.310;2023-04-15T07:48:16;8.37;;;4.70;;
16450;SDS011;12243;42.708;23.310;2023-04-15T07:50:42;3.60;;;3.30;;
16450;SDS011;12243;42.708;23.310;2023-04-15T07:53:09;4.00;;;3.67;;
16450;SDS011;12243;42.708;23.310;2023-04-15T07:55:36;4.18;;;3.42;;
16450;SDS011;12243;42.708;23.310;2023-04-15T07:58:03;4.90;;;3.50;;
16450;SDS011;12243;42.708;23.310;2023-04-15T08:00:30;3.38;;;3.08;;
16450;SDS011;12243;42.708;23.310;2023-04-15T08:02:59;4.37;;;3.70;;
16450;SDS011;12243;42.708;23.310;2023-04-15T08:05:26;7.32;;;4.20;;
16450;SDS011;12243;42.708;23.310;2023-04-15T08:07:53;6.35;;;3.25;;
16450;SDS011;12243;42.708;23.310;2023-04-15T08:10:20;4.97;;;3.05;;
16450;SDS011;12243;42.708;23.310;2023-04-15T08:12:47;4.18;;;2.75;;
16450;SDS011;12243;42.708;23.310;2023-04-15T08:15:14;4.75;;;2.63;;
16450;SDS011;12243;42.708;23.310;2023-04-15T08:17:42;3.30;;;2.58;;
16450;SDS011;12243;42.708;23.310;2023-04-15T08:20:10;4.28;;;2.25;;
16450;SDS011;12243;42.708;23.310;2023-04-15T08:22:38;3.40;;;2.28;;
16450;SDS011;12243;42.708;23.310;2023-04-15T08:25:06;3.15;;;1.95;;
16450;SDS011;12243;42.708;23.310;2023-04-15T08:27:33;1.75;;;1.67;;
16450;SDS011;12243;42.708;23.310;2023-04-15T08:30:00;3.85;;;2.05;;
16450;SDS011;12243;42.708;23.310;2023-04-15T08:32:28;2.65;;;1.80;;
16450;SDS011;12243;42.708;23.310;2023-04-15T08:34:55;2.30;;;1.98;;
16450;SDS011;12243;42.708;23.310;2023-04-15T08:37:23;2.20;;;1.33;;
16450;SDS011;12243;42.708;23.310;2023-04-15T08:39:51;2.38;;;1.58;;
16450;SDS011;12243;42.708;23.310;2023-04-15T08:42:18;4.63;;;2.08;;
16450;SDS011;12243;42.708;23.310;2023-04-15T08:44:52;3.70;;;1.80;;
16450;SDS011;12243;42.708;23.310;2023-04-15T08:47:20;2.28;;;1.60;;
16450;SDS011;12243;42.708;23.310;2023-04-15T08:49:51;3.28;;;1.80;;
16450;SDS011;12243;42.708;23.310;2023-04-15T08:52:24;1.80;;;1.70;;
16450;SDS011;12243;42.708;23.310;2023-04-15T08:54:51;1.70;;;1.60;;
16450;SDS011;12243;42.708;23.310;2023-04-15T08:57:24;3.47;;;2.17;;
16450;SDS011;12243;42.708;23.310;2023-04-15T08:59:51;2.42;;;2.22;;
16450;SDS011;12243;42.708;23.310;2023-04-15T09:02:21;2.10;;;1.75;;
16450;SDS011;12243;42.708;23.310;2023-04-15T09:04:49;2.45;;;2.08;;
16450;SDS011;12243;42.708;23.310;2023-04-15T09:07:16;2.65;;;1.80;;
16450;SDS011;12243;42.708;23.310;2023-04-15T09:09:44;2.75;;;1.92;;
16450;SDS011;12243;42.708;23.310;2023-04-15T09:12:11;3.33;;;1.92;;
16450;SDS011;12243;42.708;23.310;2023-04-15T09:14:38;2.50;;;2.30;;
16450;SDS011;12243;42.708;23.310;2023-04-15T09:17:07;2.50;;;1.70;;
16450;SDS011;12243;42.708;23.310;2023-04-15T09:19:36;2.92;;;1.80;;
16450;SDS011;12243;42.708;23.310;2023-04-15T09:22:03;2.35;;;1.40;;
16450;SDS011;12243;42.708;23.310;2023-04-15T09:24:34;2.33;;;1.80;;
16450;SDS011;12243;42.708;23.310;2023-04-15T09:27:04;2.03;;;1.90;;
16450;SDS011;12243;42.708;23.310;2023-04-15T09:29:32;2.33;;;1.70;;
16450;SDS011;12243;42.708;23.310;2023-04-15T09:32:08;3.20;;;2.83;;
16450;SDS011;12243;42.708;23.310;2023-04-15T09:34:35;5.70;;;2.90;;
16450;SDS011;12243;42.708;23.310;2023-04-15T09:37:02;4.10;;;2.47;;
16450;SDS011;12243;42.708;23.310;2023-04-15T09:39:44;6.32;;;2.92;;
16450;SDS011;12243;42.708;23.310;2023-04-15T09:42:14;5.20;;;3.85;;
16450;SDS011;12243;42.708;23.310;2023-04-15T09:44:41;5.05;;;2.53;;
16450;SDS011;12243;42.708;23.310;2023-04-15T09:47:09;4.68;;;2.92;;
16450;SDS011;12243;42.708;23.310;2023-04-15T09:49:54;4.50;;;2.90;;
16450;SDS011;12243;42.708;23.310;2023-04-15T09:52:21;4.63;;;3.10;;
16450;SDS011;12243;42.708;23.310;2023-04-15T09:54:49;6.10;;;2.90;;
16450;SDS011;12243;42.708;23.310;2023-04-15T09:57:20;3.75;;;2.38;;
16450;SDS011;12243;42.708;23.310;2023-04-15T09:59:47;3.67;;;2.83;;
16450;SDS011;12243;42.708;23.310;2023-04-15T10:02:14;6.00;;;2.63;;
16450;SDS011;12243;42.708;23.310;2023-04-15T10:04:42;2.88;;;2.03;;
16450;SDS011;12243;42.708;23.310;2023-04-15T10:07:12;3.42;;;2.63;;
16450;SDS011;12243;42.708;23.310;2023-04-15T10:09:42;4.63;;;2.30;;
16450;SDS011;12243;42.708;23.310;2023-04-15T10:12:11;2.78;;;1.85;;
16450;SDS011;12243;42.708;23.310;2023-04-15T10:14:40;1.95;;;1.80;;
16450;SDS011;12243;42.708;23.310;2023-04-15T10:17:09;2.47;;;1.88;;
16450;SDS011;12243;42.708;23.310;2023-04-15T10:19:37;5.38;;;3.65;;
16450;SDS011;12243;42.708;23.310;2023-04-15T10:22:05;2.83;;;1.98;;
16450;SDS011;12243;42.708;23.310;2023-04-15T10:24:33;2.15;;;1.50;;
16450;SDS011;12243;42.708;23.310;2023-04-15T10:27:01;2.08;;;1.63;;
16450;SDS011;12243;42.708;23.310;2023-04-15T10:29:29;2.03;;;1.73;;
16450;SDS011;12243;42.708;23.310;2023-04-15T10:31:58;1.50;;;1.40;;
16450;SDS011;12243;42.708;23.310;2023-04-15T10:34:26;2.72;;;1.30;;
16450;SDS011;12243;42.708;23.310;2023-04-15T10:36:56;2.55;;;1.50;;
16450;SDS011;12243;42.708;23.310;2023-04-15T10:39:40;1.95;;;1.33;;
16450;SDS011;12243;42.708;23.310;2023-04-15T10:42:09;1.83;;;1.70;;
16450;SDS011;12243;42.708;23.310;2023-04-15T10:44:36;1.50;;;1.40;;
16450;SDS011;12243;42.708;23.310;2023-04-15T10:47:09;1.45;;;1.30;;
16450;SDS011;12243;42.708;23.310;2023-04-15T10:49:44;2.25;;;1.30;;
16450;SDS011;12243;42.708;23.310;2023-04-15T10:52:13;1.30;;;1.20;;
16450;SDS011;12243;42.708;23.310;2023-04-15T10:54:41;1.35;;;1.20;;
16450;SDS011;12243;42.708;23.310;2023-04-15T10:57:13;2.33;;;1.60;;
16450;SDS011;12243;42.708;23.310;2023-04-15T11:00:01;1.63;;;1.20;;
16450;SDS011;12243;42.708;23.310;2023-04-15T11:02:44;2.22;;;1.33;;
16450;SDS011;12243;42.708;23.310;2023-04-15T11:05:12;3.15;;;1.42;;
16450;SDS011;12243;42.708;23.310;2023-04-15T11:07:46;1.77;;;1.33;;
16450;SDS011;12243;42.708;23.310;2023-04-15T11:13:26;4.45;;;1.35;;
16450;SDS011;12243;42.708;23.310;2023-04-15T11:15:58;1.75;;;1.55;;
16450;SDS011;12243;42.708;23.310;2023-04-15T11:18:28;2.80;;;1.70;;
16450;SDS011;12243;42.708;23.310;2023-04-15T11:20:57;1.75;;;1.63;;
16450;SDS011;12243;42.708;23.310;2023-04-15T11:23:27;1.63;;;1.48;;
16450;SDS011;12243;42.708;23.310;2023-04-15T11:25:56;1.77;;;1.58;;
16450;SDS011;12243;42.708;23.310;2023-04-15T11:28:24;4.40;;;1.70;;
16450;SDS011;12243;42.708;23.310;2023-04-15T11:30:52;1.40;;;1.30;;
16450;SDS011;12243;42.708;23.310;2023-04-15T11:33:21;1.75;;;1.60;;
16450;SDS011;12243;42.708;23.310;2023-04-15T11:35:50;2.95;;;1.23;;
16450;SDS011;12243;42.708;23.310;2023-04-15T11:38:18;3.85;;;1.50;;
16450;SDS011;12243;42.708;23.310;2023-04-15T11:40:45;4.95;;;1.90;;
16450;SDS011;12243;42.708;23.310;2023-04-15T11:43:12;1.52;;;1.42;;
16450;SDS011;12243;42.708;23.310;2023-04-15T11:45:47;2.65;;;1.58;;
16450;SDS011;12243;42.708;23.310;2023-04-15T11:48:17;1.42;;;1.33;;
16450;SDS011;12243;42.708;23.310;2023-04-15T11:50:45;2.80;;;1.52;;
16450;SDS011;12243;42.708;23.310;2023-04-15T11:53:13;1.35;;;1.25;;
16450;SDS011;12243;42.708;23.310;2023-04-15T11:55:40;2.03;;;1.40;;
16450;SDS011;12243;42.708;23.310;2023-04-15T11:58:09;1.52;;;1.42;;
16450;SDS011;12243;42.708;23.310;2023-04-15T12:00:37;2.00;;;1.25;;
16450;SDS011;12243;42.708;23.310;2023-04-15T12:03:12;2.47;;;1.50;;
16450;SDS011;12243;42.708;23.310;2023-04-15T12:11:40;1.92;;;1.25;;
16450;SDS011;12243;42.708;23.310;2023-04-15T12:14:09;2.28;;;1.10;;
16450;SDS011;12243;42.708;23.310;2023-04-15T12:16:39;1.33;;;1.20;;
16450;SDS011;12243;42.708;23.310;2023-04-15T12:19:08;2.35;;;1.63;;
16450;SDS011;12243;42.708;23.310;2023-04-15T12:21:38;1.77;;;1.40;;
16450;SDS011;12243;42.708;23.310;2023-04-15T12:24:07;1.75;;;1.50;;
16450;SDS011;12243;42.708;23.310;2023-04-15T12:26:37;1.65;;;1.45;;
16450;SDS011;12243;42.708;23.310;2023-04-15T12:29:09;1.67;;;1.45;;
16450;SDS011;12243;42.708;23.310;2023-04-15T12:31:45;1.33;;;1.23;;
16450;SDS011;12243;42.708;23.310;2023-04-15T12:34:13;2.22;;;1.20;;
16450;SDS011;12243;42.708;23.310;2023-04-15T12:36:40;2.35;;;1.23;;
16450;SDS011;12243;42.708;23.310;2023-04-15T12:39:09;1.52;;;1.20;;
16450;SDS011;12243;42.708;23.310;2023-04-15T12:41:36;1.40;;;1.30;;
16450;SDS011;12243;42.708;23.310;2023-04-15T12:44:03;2.25;;;1.20;;
16450;SDS011;12243;42.708;23.310;2023-04-15T12:46:30;1.27;;;1.23;;
16450;SDS011;12243;42.708;23.310;2023-04-15T12:48:57;1.40;;;1.30;;
16450;SDS011;12243;42.708;23.310;2023-04-15T12:51:24;1.58;;;1.30;;
16450;SDS011;12243;42.708;23.310;2023-04-15T12:53:51;4.00;;;1.95;;
16450;SDS011;12243;42.708;23.310;2023-04-15T12:56:19;1.40;;;1.30;;
16450;SDS011;12243;42.708;23.310;2023-04-15T12:58:46;1.45;;;1.40;;
16450;SDS011;12243;42.708;23.310;2023-04-15T13:01:13;1.63;;;1.40;;
16450;SDS011;12243;42.708;23.310;2023-04-15T13:03:40;1.70;;;1.35;;
16450;SDS011;12243;42.708;23.310;2023-04-15T13:06:07;3.35;;;1.10;;
16450;SDS011;12243;42.708;23.310;2023-04-15T13:08:34;1.45;;;1.35;;
16450;SDS011;12243;42.708;23.310;2023-04-15T13:11:01;2.88;;;1.38;;
16450;SDS011;12243;42.708;23.310;2023-04-15T13:13:30;1.52;;;1.25;;
16450;SDS011;12243;42.708;23.310;2023-04-15T13:15:57;2.10;;;1.27;;
16450;SDS011;12243;42.708;23.310;2023-04-15T13:18:24;2.78;;;1.20;;
16450;SDS011;12243;42.708;23.310;2023-04-15T13:20:51;3.60;;;1.27;;
16450;SDS011;12243;42.708;23.310;2023-04-15T13:23:18;1.30;;;1.15;;
16450;SDS011;12243;42.708;23.310;2023-04-15T13:25:44;1.50;;;1.40;;
16450;SDS011;12243;42.708;23.310;2023-04-15T13:28:11;3.22;;;1.33;;
16450;SDS011;12243;42.708;23.310;2023-04-15T13:30:40;1.73;;;1.10;;
16450;SDS011;12243;42.708;23.310;2023-04-15T13:33:08;1.35;;;1.25;;
16450;SDS011;12243;42.708;23.310;2023-04-15T13:35:35;3.38;;;1.10;;
16450;SDS011;12243;42.708;23.310;2023-04-15T13:38:02;2.03;;;1.17;;
16450;SDS011;12243;42.708;23.310;2023-04-15T13:40:29;1.10;;;1.00;;
16450;SDS011;12243;42.708;23.310;2023-04-15T13:42:56;2.10;;;1.73;;
16450;SDS011;12243;42.708;23.310;2023-04-15T13:45:24;3.45;;;1.17;;
16450;SDS011;12243;42.708;23.310;2023-04-15T13:47:52;1.42;;;1.33;;
16450;SDS011;12243;42.708;23.310;2023-04-15T13:50:20;1.25;;;1.15;;
16450;SDS011;12243;42.708;23.310;2023-04-15T13:52:47;1.08;;;1.08;;
16450;SDS011;12243;42.708;23.310;2023-04-15T13:55:14;3.00;;;1.33;;
16450;SDS011;12243;42.708;23.310;2023-04-15T13:57:41;1.95;;;1.50;;
16450;SDS011;12243;42.708;23.310;2023-04-15T14:00:08;1.67;;;1.58;;
16450;SDS011;12243;42.708;23.310;2023-04-15T14:02:36;1.75;;;1.13;;
16450;SDS011;12243;42.708;23.310;2023-04-15T14:05:04;0.93;;;0.93;;
16450;SDS011;12243;42.708;23.310;2023-04-15T14:07:31;2.97;;;1.38;;
16450;SDS011;12243;42.708;23.310;2023-04-15T14:09:58;1.88;;;1.60;;
16450;SDS011;12243;42.708;23.310;2023-04-15T14:12:25;1.40;;;1.30;;
16450;SDS011;12243;42.708;23.310;2023-04-15T14:14:52;2.10;;;1.10;;
16450;SDS011;12243;42.708;23.310;2023-04-15T14:17:19;1.13;;;1.13;;
16450;SDS011;12243;42.708;23.310;2023-04-15T14:19:46;1.58;;;1.27;;
16450;SDS011;12243;42.708;23.310;2023-04-15T14:22:14;1.88;;;1.30;;
16450;SDS011;12243;42.708;23.310;2023-04-15T14:24:43;2.47;;;1.40;;
16450;SDS011;12243;42.708;23.310;2023-04-15T14:27:10;4.70;;;2.10;;
16450;SDS011;12243;42.708;23.310;2023-04-15T14:29:37;0.95;;;0.93;;
16450;SDS011;12243;42.708;23.310;2023-04-15T14:32:04;1.38;;;1.30;;
16450;SDS011;12243;42.708;23.310;2023-04-15T14:34:32;1.67;;;1.25;;
16450;SDS011;12243;42.708;23.310;2023-04-15T14:36:59;1.75;;;1.20;;
16450;SDS011;12243;42.708;23.310;2023-04-15T14:39:27;1.35;;;1.25;;
16450;SDS011;12243;42.708;23.310;2023-04-15T14:41:54;2.55;;;1.40;;
16450;SDS011;12243;42.708;23.310;2023-04-15T14:44:21;1.35;;;1.30;;